sensor_id;sensor_type;location;lat;lon;timestamp;temperature;humidity
18906;DHT22;9585;51.018;4.282;2023-05-09T00:02:23;13.50;99.90
18906;DHT22;9585;51.018;4.282;2023-05-09T00:04:53;13.50;99.90
18906;DHT22;9585;51.018;4.282;2023-05-09T00:07:24;13.50;99.90
18906;DHT22;9585;51.018;4.282;2023-05-09T00:09:52;13.40;99.90
18906;DHT22;9585;51.018;4.282;2023-05-09T00:12:19;13.40;99.90
18906;DHT22;9585;51.018;4.282;2023-05-09T00:14:48;13.40;99.90
18906;DHT22;9585;51.018;4.282;2023-05-09T00:17:18;13.40;99.90
18906;DHT22;9585;51.018;4.282;2023-05-09T00:19:47;13.40;99.90
18906;DHT22;9585;51.018;4.282;2023-05-09T00:22:19;13.40;99.90
18906;DHT22;9585;51.018;4.282;2023-05-09T00:24:47;13.40;99.90
18906;DHT22;9585;51.018;4.282;2023-05-09T00:27:15;13.40;99.90
18906;DHT22;9585;51.018;4.282;2023-05-09T00:29:43;13.40;99.90
18906;DHT22;9585;51.018;4.282;2023-05-09T00:32:11;13.40;99.90
18906;DHT22;9585;51.018;4.282;2023-05-09T00:34:40;13.40;99.90
18906;DHT22;9585;51.018;4.282;2023-05-09T00:37:07;13.30;99.90
18906;DHT22;9585;51.018;4.282;2023-05-09T00:39:35;13.20;99.90
18906;DHT22;9585;51.018;4.282;2023-05-09T00:42:02;13.20;99.90
18906;DHT22;9585;51.018;4.282;2023-05-09T00:44:30;13.20;99.90
18906;DHT22;9585;51.018;4.282;2023-05-09T00:46:58;13.20;99.90
18906;DHT22;9585;51.018;4.282;2023-05-09T00:49:25;13.20;99.90
18906;DHT22;9585;51.018;4.282;2023-05-09T00:51:55;13.10;99.90
18906;DHT22;9585;51.018;4.282;2023-05-09T00:54:23;13.20;99.90
18906;DHT22;9585;51.018;4.282;2023-05-09T00:56:50;13.10;99.90
18906;DHT22;9585;51.018;4.282;2023-05-09T00:59:18;13.10;99.90
18906;DHT22;9585;51.018;4.282;2023-05-09T01:01:46;13.10;99.90
18906;DHT22;9585;51.018;4.282;2023-05-09T01:04:14;13.10;99.90
18906;DHT22;9585;51.018;4.282;2023-05-09T01:06:47;13.10;99.90
18906;DHT22;9585;51.018;4.282;2023-05-09T01:09:24;13.10;99.90
18906;DHT22;9585;51.018;4.282;2023-05-09T01:12:00;13.20;99.90
18906;DHT22;9585;51.018;4.282;2023-05-09T01:14:36;13.20;99.90
18906;DHT22;9585;51.018;4.282;2023-05-09T01:17:10;13.20;99.90
18906;DHT22;9585;51.018;4.282;2023-05-09T01:19:57;13.20;99.90
18906;DHT22;9585;51.018;4.282;2023-05-09T01:22:30;13.10;99.90
18906;DHT22;9585;51.018;4.282;2023-05-09T01:25:17;13.10;99.90
18906;DHT22;9585;51.018;4.282;2023-05-09T01:27:52;13.10;99.90
18906;DHT22;9585;51.018;4.282;2023-05-09T01:30:26;13.10;99.90
18906;DHT22;9585;51.018;4.282;2023-05-09T01:32:59;13.10;99.90
18906;DHT22;9585;51.018;4.282;2023-05-09T01:35:29;13.00;99.90
18906;DHT22;9585;51.018;4.282;2023-05-09T01:37:58;13.00;99.90
18906;DHT22;9585;51.018;4.282;2023-05-09T01:40:29;13.10;99.90
18906;DHT22;9585;51.018;4.282;2023-05-09T01:43:04;13.00;99.90
18906;DHT22;9585;51.018;4.282;2023-05-09T01:45:34;13.00;99.90
18906;DHT22;9585;51.018;4.282;2023-05-09T01:48:12;13.00;99.90
18906;DHT22;9585;51.018;4.282;2023-05-09T01:50:41;13.00;99.90
18906;DHT22;9585;51.018;4.282;2023-05-09T01:53:10;12.90;99.90
18906;DHT22;9585;51.018;4.282;2023-05-09T01:55:39;12.90;99.90
18906;DHT22;9585;51.018;4.282;2023-05-09T01:58:07;12.90;99.90
18906;DHT22;9585;51.018;4.282;2023-05-09T02:00:37;12.80;99.90
18906;DHT22;9585;51.018;4.282;2023-05-09T02:03:05;12.90;99.90
18906;DHT22;9585;51.018;4.282;2023-05-09T02:05:34;13.00;99.90
18906;DHT22;9585;51.018;4.282;2023-05-09T02:08:02;13.00;99.90
18906;DHT22;9585;51.018;4.282;2023-05-09T02:10:30;13.00;99.90
18906;DHT22;9585;51.018;4.282;2023-05-09T02:12:59;13.00;99.90
18906;DHT22;9585;51.018;4.282;2023-05-09T02:15:26;12.90;99.90
18906;DHT22;9585;51.018;4.282;2023-05-09T02:17:57;13.00;99.90
18906;DHT22;9585;51.018;4.282;2023-05-09T02:20:25;13.00;99.90
18906;DHT22;9585;51.018;4.282;2023-05-09T02:22:52;12.90;99.90
18906;DHT22;9585;51.018;4.282;2023-05-09T02:25:20;12.90;99.90
18906;DHT22;9585;51.018;4.282;2023-05-09T02:27:48;12.90;99.90
18906;DHT22;9585;51.018;4.282;2023-05-09T02:30:20;12.90;99.90
18906;DHT22;9585;51.018;4.282;2023-05-09T02:32:52;12.90;99.90
18906;DHT22;9585;51.018;4.282;2023-05-09T02:35:24;12.90;99.90
18906;DHT22;9585;51.018;4.282;2023-05-09T02:37:52;12.90;99.90
18906;DHT22;9585;51.018;4.282;2023-05-09T02:40:21;13.00;99.90
18906;DHT22;9585;51.018;4.282;2023-05-09T02:42:48;13.00;99.90
18906;DHT22;9585;51.018;4.282;2023-05-09T02:45:16;13.10;99.90
18906;DHT22;9585;51.018;4.282;2023-05-09T02:47:43;13.10;99.90
18906;DHT22;9585;51.018;4.282;2023-05-09T02:50:11;13.10;99.90
18906;DHT22;9585;51.018;4.282;2023-05-09T02:52:40;13.20;99.90
18906;DHT22;9585;51.018;4.282;2023-05-09T02:55:08;13.10;99.90
18906;DHT22;9585;51.018;4.282;2023-05-09T02:57:36;13.10;99.90
18906;DHT22;9585;51.018;4.282;2023-05-09T03:00:05;13.10;99.90
18906;DHT22;9585;51.018;4.282;2023-05-09T03:02:34;13.10;99.90
18906;DHT22;9585;51.018;4.282;2023-05-09T03:05:02;13.10;99.90
18906;DHT22;9585;51.018;4.282;2023-05-09T03:07:29;13.10;99.90
18906;DHT22;9585;51.018;4.282;2023-05-09T03:09:59;13.10;99.90
18906;DHT22;9585;51.018;4.282;2023-05-09T03:12:27;13.20;99.90
18906;DHT22;9585;51.018;4.282;2023-05-09T03:14:54;13.20;99.90
18906;DHT22;9585;51.018;4.282;2023-05-09T03:17:22;13.20;99.90
18906;DHT22;9585;51.018;4.282;2023-05-09T03:19:49;13.20;99.90
18906;DHT22;9585;51.018;4.282;2023-05-09T03:22:17;13.20;99.90
18906;DHT22;9585;51.018;4.282;2023-05-09T03:24:46;13.30;99.90
18906;DHT22;9585;51.018;4.282;2023-05-09T03:27:16;13.30;99.90
18906;DHT22;9585;51.018;4.282;2023-05-09T03:29:43;13.30;99.90
18906;DHT22;9585;51.018;4.282;2023-05-09T03:32:11;13.30;99.90
18906;DHT22;9585;51.018;4.282;2023-05-09T03:34:38;13.40;99.90
18906;DHT22;9585;51.018;4.282;2023-05-09T03:37:06;13.40;99.90
18906;DHT22;9585;51.018;4.282;2023-05-09T03:39:33;13.40;99.90
18906;DHT22;9585;51.018;4.282;2023-05-09T03:42:01;13.40;99.90
18906;DHT22;9585;51.018;4.282;2023-05-09T03:44:30;13.50;99.90
18906;DHT22;9585;51.018;4.282;2023-05-09T03:46:57;13.40;99.90
18906;DHT22;9585;51.018;4.282;2023-05-09T03:49:25;13.40;99.90
18906;DHT22;9585;51.018;4.282;2023-05-09T03:51:52;13.40;99.90
18906;DHT22;9585;51.018;4.282;2023-05-09T03:54:19;13.40;99.90
18906;DHT22;9585;51.018;4.282;2023-05-09T03:56:47;13.30;99.90
18906;DHT22;9585;51.018;4.282;2023-05-09T03:59:14;13.30;99.90
18906;DHT22;9585;51.018;4.282;2023-05-09T04:01:43;13.30;99.90
18906;DHT22;9585;51.018;4.282;2023-05-09T04:04:11;13.30;99.90
18906;DHT22;9585;51.018;4.282;2023-05-09T04:06:39;13.30;99.90
18906;DHT22;9585;51.018;4.282;2023-05-09T04:09:06;13.30;99.90
18906;DHT22;9585;51.018;4.282;2023-05-09T04:11:34;13.30;99.90
18906;DHT22;9585;51.018;4.282;2023-05-09T04:14:01;13.30;99.90
18906;DHT22;9585;51.018;4.282;2023-05-09T04:16:32;13.30;99.90
18906;DHT22;9585;51.018;4.282;2023-05-09T04:19:01;13.30;99.90
18906;DHT22;9585;51.018;4.282;2023-05-09T04:21:28;13.30;99.90
18906;DHT22;9585;51.018;4.282;2023-05-09T04:23:56;13.30;99.90
18906;DHT22;9585;51.018;4.282;2023-05-09T04:26:24;13.30;99.90
18906;DHT22;9585;51.018;4.282;2023-05-09T04:28:52;13.40;99.90
18906;DHT22;9585;51.018;4.282;2023-05-09T04:31:20;13.40;99.90
18906;DHT22;9585;51.018;4.282;2023-05-09T04:33:47;13.30;99.90
18906;DHT22;9585;51.018;4.282;2023-05-09T04:36:17;13.30;99.90
18906;DHT22;9585;51.018;4.282;2023-05-09T04:38:46;13.40;99.90
18906;DHT22;9585;51.018;4.282;2023-05-09T04:41:13;13.40;99.90
18906;DHT22;9585;51.018;4.282;2023-05-09T04:43:41;13.40;99.90
18906;DHT22;9585;51.018;4.282;2023-05-09T04:46:08;13.40;99.90
18906;DHT22;9585;51.018;4.282;2023-05-09T04:48:36;13.40;99.90
18906;DHT22;9585;51.018;4.282;2023-05-09T04:51:04;13.40;99.90
18906;DHT22;9585;51.018;4.282;2023-05-09T04:53:34;13.50;99.90
18906;DHT22;9585;51.018;4.282;2023-05-09T04:56:01;13.50;99.90
18906;DHT22;9585;51.018;4.282;2023-05-09T04:58:29;13.60;99.90
18906;DHT22;9585;51.018;4.282;2023-05-09T05:00:58;13.60;99.90
18906;DHT22;9585;51.018;4.282;2023-05-09T05:03:25;13.60;99.90
18906;DHT22;9585;51.018;4.282;2023-05-09T05:05:53;13.60;99.90
18906;DHT22;9585;51.018;4.282;2023-05-09T05:08:20;13.60;99.90
18906;DHT22;9585;51.018;4.282;2023-05-09T05:10:49;13.60;99.90
18906;DHT22;9585;51.018;4.282;2023-05-09T05:13:17;13.60;99.90
18906;DHT22;9585;51.018;4.282;2023-05-09T05:15:46;13.50;99.90
18906;DHT22;9585;51.018;4.282;2023-05-09T05:18:14;13.40;99.90
18906;DHT22;9585;51.018;4.282;2023-05-09T05:20:42;13.40;99.90
18906;DHT22;9585;51.018;4.282;2023-05-09T05:23:09;13.40;99.90
18906;DHT22;9585;51.018;4.282;2023-05-09T05:25:37;13.30;99.90
18906;DHT22;9585;51.018;4.282;2023-05-09T05:28:07;13.30;99.90
18906;DHT22;9585;51.018;4.282;2023-05-09T05:30:34;13.30;99.90
18906;DHT22;9585;51.018;4.282;2023-05-09T05:33:02;13.30;99.90
18906;DHT22;9585;51.018;4.282;2023-05-09T05:35:29;13.30;99.90
18906;DHT22;9585;51.018;4.282;2023-05-09T05:37:57;13.30;99.90
18906;DHT22;9585;51.018;4.282;2023-05-09T05:40:25;13.30;99.90
18906;DHT22;9585;51.018;4.282;2023-05-09T05:42:53;13.30;99.90
18906;DHT22;9585;51.018;4.282;2023-05-09T05:45:22;13.30;99.90
18906;DHT22;9585;51.018;4.282;2023-05-09T05:47:50;13.30;99.90
18906;DHT22;9585;51.018;4.282;2023-05-09T05:50:17;13.40;99.90
18906;DHT22;9585;51.018;4.282;2023-05-09T05:52:45;13.50;99.90
18906;DHT22;9585;51.018;4.282;2023-05-09T05:55:12;13.50;99.90
18906;DHT22;9585;51.018;4.282;2023-05-09T05:57:40;13.40;99.90
18906;DHT22;9585;51.018;4.282;2023-05-09T06:00:09;13.50;99.90
18906;DHT22;9585;51.018;4.282;2023-05-09T06:02:39;13.50;99.90
18906;DHT22;9585;51.018;4.282;2023-05-09T06:05:08;13.50;99.90
18906;DHT22;9585;51.018;4.282;2023-05-09T06:07:36;13.50;99.90
18906;DHT22;9585;51.018;4.282;2023-05-09T06:10:06;13.50;99.90
18906;DHT22;9585;51.018;4.282;2023-05-09T06:12:34;13.50;99.90
18906;DHT22;9585;51.018;4.282;2023-05-09T06:15:01;13.50;99.90
18906;DHT22;9585;51.018;4.282;2023-05-09T06:17:30;13.50;99.90
18906;DHT22;9585;51.018;4.282;2023-05-09T06:20:02;13.50;99.90
18906;DHT22;9585;51.018;4.282;2023-05-09T06:22:31;13.50;99.90
18906;DHT22;9585;51.018;4.282;2023-05-09T06:24:58;13.60;99.90
18906;DHT22;9585;51.018;4.282;2023-05-09T06:27:28;13.70;99.90
18906;DHT22;9585;51.018;4.282;2023-05-09T06:29:56;13.80;99.90
18906;DHT22;9585;51.018;4.282;2023-05-09T06:32:24;13.90;99.90
18906;DHT22;9585;51.018;4.282;2023-05-09T06:34:52;13.90;99.90
18906;DHT22;9585;51.018;4.282;2023-05-09T06:37:20;13.90;99.90
18906;DHT22;9585;51.018;4.282;2023-05-09T06:39:51;14.00;99.90
18906;DHT22;9585;51.018;4.282;2023-05-09T06:42:19;14.10;99.90
18906;DHT22;9585;51.018;4.282;2023-05-09T06:44:46;14.00;99.90
18906;DHT22;9585;51.018;4.282;2023-05-09T06:47:14;14.10;99.90
18906;DHT22;9585;51.018;4.282;2023-05-09T06:49:41;14.10;99.90
18906;DHT22;9585;51.018;4.282;2023-05-09T06:52:09;14.10;99.90
18906;DHT22;9585;51.018;4.282;2023-05-09T06:54:39;14.00;99.90
18906;DHT22;9585;51.018;4.282;2023-05-09T06:57:08;13.90;99.90
18906;DHT22;9585;51.018;4.282;2023-05-09T06:59:36;14.00;99.90
18906;DHT22;9585;51.018;4.282;2023-05-09T07:02:03;13.90;99.90
18906;DHT22;9585;51.018;4.282;2023-05-09T07:04:31;13.90;99.90
18906;DHT22;9585;51.018;4.282;2023-05-09T07:06:59;13.80;99.90
18906;DHT22;9585;51.018;4.282;2023-05-09T07:09:26;13.80;99.90
18906;DHT22;9585;51.018;4.282;2023-05-09T07:11:55;13.80;99.90
18906;DHT22;9585;51.018;4.282;2023-05-09T07:14:23;13.80;99.90
18906;DHT22;9585;51.018;4.282;2023-05-09T07:16:50;13.80;99.90
18906;DHT22;9585;51.018;4.282;2023-05-09T07:19:18;13.80;99.90
18906;DHT22;9585;51.018;4.282;2023-05-09T07:21:45;13.80;99.90
18906;DHT22;9585;51.018;4.282;2023-05-09T07:24:13;14.00;99.90
18906;DHT22;9585;51.018;4.282;2023-05-09T07:26:41;13.90;99.90
18906;DHT22;9585;51.018;4.282;2023-05-09T07:29:10;14.00;99.90
18906;DHT22;9585;51.018;4.282;2023-05-09T07:31:37;13.90;99.90
18906;DHT22;9585;51.018;4.282;2023-05-09T07:34:05;14.00;99.90
18906;DHT22;9585;51.018;4.282;2023-05-09T07:36:32;14.20;99.90
18906;DHT22;9585;51.018;4.282;2023-05-09T07:39:02;14.30;99.90
18906;DHT22;9585;51.018;4.282;2023-05-09T07:41:29;14.20;99.90
18906;DHT22;9585;51.018;4.282;2023-05-09T07:43:57;14.20;99.90
18906;DHT22;9585;51.018;4.282;2023-05-09T07:46:26;14.30;99.90
18906;DHT22;9585;51.018;4.282;2023-05-09T07:48:53;14.30;99.90
18906;DHT22;9585;51.018;4.282;2023-05-09T07:51:22;14.20;99.90
18906;DHT22;9585;51.018;4.282;2023-05-09T07:53:50;14.20;99.90
18906;DHT22;9585;51.018;4.282;2023-05-09T07:56:19;14.20;99.90
18906;DHT22;9585;51.018;4.282;2023-05-09T07:58:47;14.30;99.90
18906;DHT22;9585;51.018;4.282;2023-05-09T08:01:15;14.30;99.90
18906;DHT22;9585;51.018;4.282;2023-05-09T08:03:44;14.40;99.90
18906;DHT22;9585;51.018;4.282;2023-05-09T08:06:14;14.50;99.90
18906;DHT22;9585;51.018;4.282;2023-05-09T08:08:41;14.60;99.90
18906;DHT22;9585;51.018;4.282;2023-05-09T08:11:09;14.60;99.90
18906;DHT22;9585;51.018;4.282;2023-05-09T08:13:37;14.70;99.90
18906;DHT22;9585;51.018;4.282;2023-05-09T08:16:04;14.60;99.90
18906;DHT22;9585;51.018;4.282;2023-05-09T08:18:32;14.60;99.90
18906;DHT22;9585;51.018;4.282;2023-05-09T08:21:01;14.30;99.90
18906;DHT22;9585;51.018;4.282;2023-05-09T08:23:28;14.20;99.90
18906;DHT22;9585;51.018;4.282;2023-05-09T08:25:56;14.10;99.90
18906;DHT22;9585;51.018;4.282;2023-05-09T08:28:26;14.20;99.90
18906;DHT22;9585;51.018;4.282;2023-05-09T08:30:55;14.20;99.90
18906;DHT22;9585;51.018;4.282;2023-05-09T08:33:22;14.20;99.90
18906;DHT22;9585;51.018;4.282;2023-05-09T08:35:50;14.30;99.90
18906;DHT22;9585;51.018;4.282;2023-05-09T08:38:20;14.40;99.90
18906;DHT22;9585;51.018;4.282;2023-05-09T08:40:49;14.50;99.90
18906;DHT22;9585;51.018;4.282;2023-05-09T08:43:16;14.50;99.90
18906;DHT22;9585;51.018;4.282;2023-05-09T08:45:49;14.50;99.90
18906;DHT22;9585;51.018;4.282;2023-05-09T08:48:17;14.50;99.90
18906;DHT22;9585;51.018;4.282;2023-05-09T08:50:45;14.50;99.90
18906;DHT22;9585;51.018;4.282;2023-05-09T08:53:13;14.40;99.90
18906;DHT22;9585;51.018;4.282;2023-05-09T08:55:42;14.40;99.90
18906;DHT22;9585;51.018;4.282;2023-05-09T08:58:12;14.30;99.90
18906;DHT22;9585;51.018;4.282;2023-05-09T09:00:40;14.30;99.90
18906;DHT22;9585;51.018;4.282;2023-05-09T09:03:09;14.30;99.90
18906;DHT22;9585;51.018;4.282;2023-05-09T09:05:37;14.30;99.90
18906;DHT22;9585;51.018;4.282;2023-05-09T09:08:07;14.20;99.90
18906;DHT22;9585;51.018;4.282;2023-05-09T09:10:39;14.30;99.90
18906;DHT22;9585;51.018;4.282;2023-05-09T09:13:10;14.30;99.90
18906;DHT22;9585;51.018;4.282;2023-05-09T09:15:40;14.30;99.90
18906;DHT22;9585;51.018;4.282;2023-05-09T09:18:11;14.30;99.90
18906;DHT22;9585;51.018;4.282;2023-05-09T09:20:45;14.30;99.90
18906;DHT22;9585;51.018;4.282;2023-05-09T09:23:18;14.40;99.90
18906;DHT22;9585;51.018;4.282;2023-05-09T09:25:46;14.40;99.90
18906;DHT22;9585;51.018;4.282;2023-05-09T09:28:15;14.50;99.90
18906;DHT22;9585;51.018;4.282;2023-05-09T09:30:43;14.40;99.90
18906;DHT22;9585;51.018;4.282;2023-05-09T09:33:19;14.30;99.90
18906;DHT22;9585;51.018;4.282;2023-05-09T09:35:48;14.20;99.90
18906;DHT22;9585;51.018;4.282;2023-05-09T09:38:17;14.20;99.90
18906;DHT22;9585;51.018;4.282;2023-05-09T09:40:51;14.30;99.90
18906;DHT22;9585;51.018;4.282;2023-05-09T09:43:26;14.40;99.90
18906;DHT22;9585;51.018;4.282;2023-05-09T09:45:54;14.40;99.90
18906;DHT22;9585;51.018;4.282;2023-05-09T09:48:25;14.30;99.90
18906;DHT22;9585;51.018;4.282;2023-05-09T09:50:54;14.40;99.90
18906;DHT22;9585;51.018;4.282;2023-05-09T09:53:22;14.40;99.90
18906;DHT22;9585;51.018;4.282;2023-05-09T09:55:55;14.40;99.90
18906;DHT22;9585;51.018;4.282;2023-05-09T09:58:24;14.40;99.90
18906;DHT22;9585;51.018;4.282;2023-05-09T10:01:04;14.50;99.90
18906;DHT22;9585;51.018;4.282;2023-05-09T10:03:36;14.60;99.90
18906;DHT22;9585;51.018;4.282;2023-05-09T10:06:04;14.50;99.90
18906;DHT22;9585;51.018;4.282;2023-05-09T10:08:31;14.40;99.90
18906;DHT22;9585;51.018;4.282;2023-05-09T10:10:59;14.30;99.90
18906;DHT22;9585;51.018;4.282;2023-05-09T10:13:28;14.20;99.90
18906;DHT22;9585;51.018;4.282;2023-05-09T10:15:57;14.30;99.90
18906;DHT22;9585;51.018;4.282;2023-05-09T10:18:27;14.10;99.90
18906;DHT22;9585;51.018;4.282;2023-05-09T10:20:56;14.10;99.90
18906;DHT22;9585;51.018;4.282;2023-05-09T10:23:31;14.10;99.90
18906;DHT22;9585;51.018;4.282;2023-05-09T10:26:07;14.10;99.90
18906;DHT22;9585;51.018;4.282;2023-05-09T10:28:39;13.90;99.90
18906;DHT22;9585;51.018;4.282;2023-05-09T10:31:15;13.80;99.90
18906;DHT22;9585;51.018;4.282;2023-05-09T10:33:47;13.80;99.90
18906;DHT22;9585;51.018;4.282;2023-05-09T10:36:18;13.80;99.90
18906;DHT22;9585;51.018;4.282;2023-05-09T10:38:50;13.80;99.90
18906;DHT22;9585;51.018;4.282;2023-05-09T10:41:20;13.90;99.90
18906;DHT22;9585;51.018;4.282;2023-05-09T10:43:50;13.90;99.90
18906;DHT22;9585;51.018;4.282;2023-05-09T10:46:17;13.90;99.90
18906;DHT22;9585;51.018;4.282;2023-05-09T10:48:46;13.90;99.90
18906;DHT22;9585;51.018;4.282;2023-05-09T10:51:15;13.80;99.90
18906;DHT22;9585;51.018;4.282;2023-05-09T10:53:45;13.80;99.90
18906;DHT22;9585;51.018;4.282;2023-05-09T10:56:23;13.90;99.90
18906;DHT22;9585;51.018;4.282;2023-05-09T10:58:53;14.00;99.90
18906;DHT22;9585;51.018;4.282;2023-05-09T11:01:28;14.00;99.90
18906;DHT22;9585;51.018;4.282;2023-05-09T11:03:59;14.10;99.90
18906;DHT22;9585;51.018;4.282;2023-05-09T11:06:45;14.00;99.90
18906;DHT22;9585;51.018;4.282;2023-05-09T11:09:24;14.20;99.90
18906;DHT22;9585;51.018;4.282;2023-05-09T11:11:56;14.20;99.90
18906;DHT22;9585;51.018;4.282;2023-05-09T11:14:38;14.20;99.90
18906;DHT22;9585;51.018;4.282;2023-05-09T11:17:07;14.10;99.90
18906;DHT22;9585;51.018;4.282;2023-05-09T11:19:36;14.20;99.90
18906;DHT22;9585;51.018;4.282;2023-05-09T11:22:14;14.10;99.90
18906;DHT22;9585;51.018;4.282;2023-05-09T11:24:44;14.10;99.90
18906;DHT22;9585;51.018;4.282;2023-05-09T11:27:18;13.90;99.90
18906;DHT22;9585;51.018;4.282;2023-05-09T11:29:50;13.90;99.90
18906;DHT22;9585;51.018;4.282;2023-05-09T11:32:18;14.00;99.90
18906;DHT22;9585;51.018;4.282;2023-05-09T11:34:48;14.10;99.90
18906;DHT22;9585;51.018;4.282;2023-05-09T11:37:16;14.20;99.90
18906;DHT22;9585;51.018;4.282;2023-05-09T11:39:57;14.30;99.90
18906;DHT22;9585;51.018;4.282;2023-05-09T11:42:26;14.30;99.90
18906;DHT22;9585;51.018;4.282;2023-05-09T11:44:55;14.30;99.90
18906;DHT22;9585;51.018;4.282;2023-05-09T11:47:23;14.20;99.90
18906;DHT22;9585;51.018;4.282;2023-05-09T11:49:52;14.20;99.90
18906;DHT22;9585;51.018;4.282;2023-05-09T11:52:19;14.10;99.90
18906;DHT22;9585;51.018;4.282;2023-05-09T11:54:50;14.10;99.90
18906;DHT22;9585;51.018;4.282;2023-05-09T11:57:18;14.20;99.90
18906;DHT22;9585;51.018;4.282;2023-05-09T11:59:45;14.00;99.90
18906;DHT22;9585;51.018;4.282;2023-05-09T12:02:16;14.00;99.90
18906;DHT22;9585;51.018;4.282;2023-05-09T12:04:44;14.00;99.90
18906;DHT22;9585;51.018;4.282;2023-05-09T12:07:11;13.90;99.90
18906;DHT22;9585;51.018;4.282;2023-05-09T12:09:39;14.00;99.90
18906;DHT22;9585;51.018;4.282;2023-05-09T12:12:09;13.90;99.90
18906;DHT22;9585;51.018;4.282;2023-05-09T12:14:43;14.00;99.90
18906;DHT22;9585;51.018;4.282;2023-05-09T12:17:10;13.90;99.90
18906;DHT22;9585;51.018;4.282;2023-05-09T12:19:40;14.00;99.90
18906;DHT22;9585;51.018;4.282;2023-05-09T12:22:08;14.00;99.90
18906;DHT22;9585;51.018;4.282;2023-05-09T12:24:36;14.10;99.90
18906;DHT22;9585;51.018;4.282;2023-05-09T12:27:06;14.20;99.90
18906;DHT22;9585;51.018;4.282;2023-05-09T12:29:34;14.10;99.90
18906;DHT22;9585;51.018;4.282;2023-05-09T12:32:02;14.00;99.90
18906;DHT22;9585;51.018;4.282;2023-05-09T12:34:29;13.90;99.90
18906;DHT22;9585;51.018;4.282;2023-05-09T12:36:59;14.00;99.90
18906;DHT22;9585;51.018;4.282;2023-05-09T12:39:35;14.00;99.90
18906;DHT22;9585;51.018;4.282;2023-05-09T12:42:11;14.00;99.90
18906;DHT22;9585;51.018;4.282;2023-05-09T12:44:50;14.00;99.90
18906;DHT22;9585;51.018;4.282;2023-05-09T12:47:21;14.10;99.90
18906;DHT22;9585;51.018;4.282;2023-05-09T12:50:05;14.10;99.90
18906;DHT22;9585;51.018;4.282;2023-05-09T12:52:55;14.20;99.90
18906;DHT22;9585;51.018;4.282;2023-05-09T12:55:38;14.20;99.90
18906;DHT22;9585;51.018;4.282;2023-05-09T12:58:07;14.10;99.90
18906;DHT22;9585;51.018;4.282;2023-05-09T13:00:46;14.10;99.90
18906;DHT22;9585;51.018;4.282;2023-05-09T13:06:23;14.20;99.90
18906;DHT22;9585;51.018;4.282;2023-05-09T13:09:00;14.20;99.90
18906;DHT22;9585;51.018;4.282;2023-05-09T13:11:28;14.20;99.90
18906;DHT22;9585;51.018;4.282;2023-05-09T13:13:55;14.30;99.90
18906;DHT22;9585;51.018;4.282;2023-05-09T13:16:23;14.30;99.90
18906;DHT22;9585;51.018;4.282;2023-05-09T13:18:54;14.30;99.90
18906;DHT22;9585;51.018;4.282;2023-05-09T13:21:36;14.20;99.90
18906;DHT22;9585;51.018;4.282;2023-05-09T13:24:21;14.00;99.90
18906;DHT22;9585;51.018;4.282;2023-05-09T13:26:50;13.90;99.90
18906;DHT22;9585;51.018;4.282;2023-05-09T13:29:21;14.10;99.90
18906;DHT22;9585;51.018;4.282;2023-05-09T13:31:49;14.20;99.90
18906;DHT22;9585;51.018;4.282;2023-05-09T13:34:17;14.20;99.90
18906;DHT22;9585;51.018;4.282;2023-05-09T13:36:44;14.20;99.90
18906;DHT22;9585;51.018;4.282;2023-05-09T13:39:14;14.10;99.90
18906;DHT22;9585;51.018;4.282;2023-05-09T13:41:44;14.00;99.90
18906;DHT22;9585;51.018;4.282;2023-05-09T13:44:13;13.90;99.90
18906;DHT22;9585;51.018;4.282;2023-05-09T13:46:41;13.90;99.90
18906;DHT22;9585;51.018;4.282;2023-05-09T13:49:28;13.80;99.90
18906;DHT22;9585;51.018;4.282;2023-05-09T13:51:55;13.70;99.90
18906;DHT22;9585;51.018;4.282;2023-05-09T13:54:23;13.50;99.90
18906;DHT22;9585;51.018;4.282;2023-05-09T13:56:53;13.30;99.90
18906;DHT22;9585;51.018;4.282;2023-05-09T13:59:20;13.40;99.90
18906;DHT22;9585;51.018;4.282;2023-05-09T14:01:48;13.30;99.90
18906;DHT22;9585;51.018;4.282;2023-05-09T14:04:15;13.30;99.90
18906;DHT22;9585;51.018;4.282;2023-05-09T14:06:50;13.20;99.90
18906;DHT22;9585;51.018;4.282;2023-05-09T14:09:18;13.20;99.90
18906;DHT22;9585;51.018;4.282;2023-05-09T14:11:49;13.10;99.90
18906;DHT22;9585;51.018;4.282;2023-05-09T14:14:20;13.20;99.90
18906;DHT22;9585;51.018;4.282;2023-05-09T14:16:47;13.20;99.90
18906;DHT22;9585;51.018;4.282;2023-05-09T14:19:16;13.20;99.90
18906;DHT22;9585;51.018;4.282;2023-05-09T14:21:46;13.20;99.90
18906;DHT22;9585;51.018;4.282;2023-05-09T14:24:16;13.20;99.90
18906;DHT22;9585;51.018;4.282;2023-05-09T14:26:43;13.30;99.90
18906;DHT22;9585;51.018;4.282;2023-05-09T14:29:15;13.30;99.90
18906;DHT22;9585;51.018;4.282;2023-05-09T14:31:44;13.30;99.90
18906;DHT22;9585;51.018;4.282;2023-05-09T14:34:12;13.40;99.90
18906;DHT22;9585;51.018;4.282;2023-05-09T14:36:39;13.40;99.90
18906;DHT22;9585;51.018;4.282;2023-05-09T14:39:07;13.40;99.90
18906;DHT22;9585;51.018;4.282;2023-05-09T14:41:39;13.60;99.90
18906;DHT22;9585;51.018;4.282;2023-05-09T14:44:14;13.70;99.90
18906;DHT22;9585;51.018;4.282;2023-05-09T14:46:46;13.70;99.90
18906;DHT22;9585;51.018;4.282;2023-05-09T14:49:14;13.70;99.90
18906;DHT22;9585;51.018;4.282;2023-05-09T14:51:45;13.60;99.90
18906;DHT22;9585;51.018;4.282;2023-05-09T14:54:12;13.50;99.90
18906;DHT22;9585;51.018;4.282;2023-05-09T14:56:40;13.60;99.90
18906;DHT22;9585;51.018;4.282;2023-05-09T14:59:08;13.60;99.90
18906;DHT22;9585;51.018;4.282;2023-05-09T15:01:36;13.60;99.90
18906;DHT22;9585;51.018;4.282;2023-05-09T15:04:06;13.60;99.90
18906;DHT22;9585;51.018;4.282;2023-05-09T15:06:34;13.60;99.90
18906;DHT22;9585;51.018;4.282;2023-05-09T15:09:02;13.60;99.90
18906;DHT22;9585;51.018;4.282;2023-05-09T15:11:32;13.80;99.90
18906;DHT22;9585;51.018;4.282;2023-05-09T15:13:59;13.80;99.90
18906;DHT22;9585;51.018;4.282;2023-05-09T15:16:27;13.90;99.90
18906;DHT22;9585;51.018;4.282;2023-05-09T15:19:02;14.00;99.90
18906;DHT22;9585;51.018;4.282;2023-05-09T15:21:33;14.10;99.90
18906;DHT22;9585;51.018;4.282;2023-05-09T15:24:01;14.10;99.90
18906;DHT22;9585;51.018;4.282;2023-05-09T15:26:28;14.00;99.90
18906;DHT22;9585;51.018;4.282;2023-05-09T15:28:56;14.10;99.90
18906;DHT22;9585;51.018;4.282;2023-05-09T15:31:23;14.10;99.90
18906;DHT22;9585;51.018;4.282;2023-05-09T15:33:51;14.00;99.90
18906;DHT22;9585;51.018;4.282;2023-05-09T15:36:18;14.10;99.90
18906;DHT22;9585;51.018;4.282;2023-05-09T15:38:47;14.10;99.90
18906;DHT22;9585;51.018;4.282;2023-05-09T15:41:17;14.10;99.90
18906;DHT22;9585;51.018;4.282;2023-05-09T15:43:44;14.10;99.90
18906;DHT22;9585;51.018;4.282;2023-05-09T15:46:15;14.00;99.90
18906;DHT22;9585;51.018;4.282;2023-05-09T15:48:46;13.90;99.90
18906;DHT22;9585;51.018;4.282;2023-05-09T15:51:14;13.80;99.90
18906;DHT22;9585;51.018;4.282;2023-05-09T15:53:54;13.80;99.90
18906;DHT22;9585;51.018;4.282;2023-05-09T15:56:30;13.80;99.90
18906;DHT22;9585;51.018;4.282;2023-05-09T15:59:10;13.90;99.90
18906;DHT22;9585;51.018;4.282;2023-05-09T16:01:42;13.90;99.90
18906;DHT22;9585;51.018;4.282;2023-05-09T16:04:11;13.90;99.90